Hovedside
METAR-TAF:

METAR-TAF

Lufthavner :

Eugene, Oregon, USA

breddegrad: 44-08-00N, lengdegrad: 123-12-52W, høyde over havet: 111 m

Gjeldene værobservasjon

Denne rapporten ble laget for 1 time og 10 minutter siden, klokken 10:54 UTC
Flau vind
Temperatur 4°C
Luftfuktighet 87%
Trykk 1021 hPa
Sikt: 16.1 km
Skyfri himmel

METAR: KEUG 201054Z AUTO 00000KT 10SM CLR 04/02 A3016 RMK AO2 SLP214 T00440022

Tid: 05:04 (12:04 UTC)

Varsel

Denne rapporten ble laget for 32 minutter siden, klokken 11:32 UTC
Varsel gyldig fra 20. klokken 12 UTC til 21. klokken 12 UTC
Vind 2 kt fra skiftende retning
Sikt: 10 km
Skyfri himmel
Midlertidig
fra 20. klokken 13 UTC til 20. klokken 16 UTC
Sikt: 6.4 km
dis
Fra 20. klokken 1800 UTC
Vind 7 kt fra Nord
Sikt: 10 km
Skyfri himmel

TAF: KEUG 201132Z 2012/2112 VRB02KT P6SM SKC TEMPO 2013/2016 4SM BR FM201800 01007KT P6SM SKC

Værobservasjoner og værvarsel for over 4000 flyplasser (METAR- og TAF-rapporter).

Tilgjengelige stasjoner er representert av de røde og gule prikkene på kartet.

Hold musepekeren over prikken for å se navnet på stasjonen.

Klikk så for å se værobservasjoner og -varsler.

For å forandre kartet kan du klikke på den grønne knappen med svart kryss for å zoome inn, på den grønne knappen med strek for å zoome ut, eller på de grønne pilene for å se tilstøtende kart.


METAR-TAF: